sensor_id;sensor_type;location;lat;lon;timestamp;pressure;altitude;pressure_sealevel;temperature;humidity
23016;BME280;11674;52.428;13.584;2023-04-05T00:04:37;102211.66;;;3.19;60.86
23016;BME280;11674;52.428;13.584;2023-04-05T00:09:44;102221.56;;;3.13;60.80
23016;BME280;11674;52.428;13.584;2023-04-05T00:14:51;102217.53;;;3.09;60.99
23016;BME280;11674;52.428;13.584;2023-04-05T00:19:58;102220.25;;;3.03;61.09
23016;BME280;11674;52.428;13.584;2023-04-05T00:25:06;102217.50;;;2.96;61.17
23016;BME280;11674;52.428;13.584;2023-04-05T00:30:12;102213.25;;;2.87;61.23
23016;BME280;11674;52.428;13.584;2023-04-05T00:35:19;102210.66;;;2.79;61.33
23016;BME280;11674;52.428;13.584;2023-04-05T00:40:26;102211.47;;;2.73;61.40
23016;BME280;11674;52.428;13.584;2023-04-05T00:45:34;102207.88;;;2.66;61.44
23016;BME280;11674;52.428;13.584;2023-04-05T00:50:42;102205.09;;;2.60;61.47
23016;BME280;11674;52.428;13.584;2023-04-05T00:55:49;102212.25;;;2.54;61.52
23016;BME280;11674;52.428;13.584;2023-04-05T01:01:12;102202.53;;;2.52;61.55
23016;BME280;11674;52.428;13.584;2023-04-05T01:11:30;102197.25;;;2.50;61.67
23016;BME280;11674;52.428;13.584;2023-04-05T01:16:38;102196.84;;;2.47;61.89
23016;BME280;11674;52.428;13.584;2023-04-05T01:27:13;102186.47;;;2.42;61.91
23016;BME280;11674;52.428;13.584;2023-04-05T01:38:02;102188.56;;;2.40;62.16
23016;BME280;11674;52.428;13.584;2023-04-05T01:43:16;102185.44;;;2.43;62.24
23016;BME280;11674;52.428;13.584;2023-04-05T01:48:22;102189.66;;;2.46;62.39
23016;BME280;11674;52.428;13.584;2023-04-05T01:53:29;102175.16;;;2.52;62.43
23016;BME280;11674;52.428;13.584;2023-04-05T01:58:36;102176.66;;;2.61;62.53
23016;BME280;11674;52.428;13.584;2023-04-05T02:03:43;102172.09;;;2.74;62.62
23016;BME280;11674;52.428;13.584;2023-04-05T02:08:50;102171.72;;;2.84;62.78
23016;BME280;11674;52.428;13.584;2023-04-05T02:13:58;102176.81;;;2.93;62.88
23016;BME280;11674;52.428;13.584;2023-04-05T02:19:04;102164.63;;;3.02;62.76
23016;BME280;11674;52.428;13.584;2023-04-05T02:24:11;102164.84;;;3.14;62.93
23016;BME280;11674;52.428;13.584;2023-04-05T02:29:18;102169.50;;;3.26;62.99
23016;BME280;11674;52.428;13.584;2023-04-05T02:34:25;102166.38;;;3.36;63.05
23016;BME280;11674;52.428;13.584;2023-04-05T02:39:32;102158.56;;;3.46;63.20
23016;BME280;11674;52.428;13.584;2023-04-05T02:44:40;102156.88;;;3.51;63.10
23016;BME280;11674;52.428;13.584;2023-04-05T02:49:48;102149.94;;;3.55;63.34
23016;BME280;11674;52.428;13.584;2023-04-05T02:54:58;102146.13;;;3.63;63.23
23016;BME280;11674;52.428;13.584;2023-04-05T03:00:05;102135.34;;;3.74;63.31
23016;BME280;11674;52.428;13.584;2023-04-05T03:05:13;102143.19;;;3.84;63.25
23016;BME280;11674;52.428;13.584;2023-04-05T03:10:23;102142.09;;;3.91;63.49
23016;BME280;11674;52.428;13.584;2023-04-05T03:15:36;102138.72;;;3.96;63.45
23016;BME280;11674;52.428;13.584;2023-04-05T03:20:47;102129.44;;;3.97;63.64
23016;BME280;11674;52.428;13.584;2023-04-05T03:26:00;102133.84;;;3.98;63.57
23016;BME280;11674;52.428;13.584;2023-04-05T03:31:11;102126.47;;;3.98;63.52
23016;BME280;11674;52.428;13.584;2023-04-05T03:36:19;102127.28;;;3.99;63.55
23016;BME280;11674;52.428;13.584;2023-04-05T03:41:27;102124.34;;;4.00;63.62
23016;BME280;11674;52.428;13.584;2023-04-05T03:46:34;102120.97;;;3.98;63.69
23016;BME280;11674;52.428;13.584;2023-04-05T03:51:41;102118.44;;;3.97;63.76
23016;BME280;11674;52.428;13.584;2023-04-05T03:57:03;102115.50;;;3.92;63.61
23016;BME280;11674;52.428;13.584;2023-04-05T04:02:11;102118.44;;;3.97;63.82
23016;BME280;11674;52.428;13.584;2023-04-05T04:07:18;102123.28;;;4.01;63.85
23016;BME280;11674;52.428;13.584;2023-04-05T04:12:25;102114.44;;;4.06;63.72
23016;BME280;11674;52.428;13.584;2023-04-05T04:17:35;102116.09;;;4.07;63.61
23016;BME280;11674;52.428;13.584;2023-04-05T04:22:57;102113.56;;;4.05;63.73
23016;BME280;11674;52.428;13.584;2023-04-05T04:28:23;102119.69;;;4.07;63.74
23016;BME280;11674;52.428;13.584;2023-04-05T04:33:37;102119.47;;;4.09;63.81
23016;BME280;11674;52.428;13.584;2023-04-05T04:38:46;102119.69;;;4.07;63.74
23016;BME280;11674;52.428;13.584;2023-04-05T04:44:22;102122.88;;;4.11;64.01
23016;BME280;11674;52.428;13.584;2023-04-05T04:49:48;102116.06;;;4.20;64.05
23016;BME280;11674;52.428;13.584;2023-04-05T04:54:55;102118.19;;;4.24;63.85
23016;BME280;11674;52.428;13.584;2023-04-05T05:00:03;102118.38;;;4.29;64.04
23016;BME280;11674;52.428;13.584;2023-04-05T05:05:10;102120.47;;;4.34;64.13
23016;BME280;11674;52.428;13.584;2023-04-05T05:10:17;102123.19;;;4.40;64.12
23016;BME280;11674;52.428;13.584;2023-04-05T05:15:24;102107.94;;;4.44;63.98
23016;BME280;11674;52.428;13.584;2023-04-05T05:20:31;102119.53;;;4.53;64.07
23016;BME280;11674;52.428;13.584;2023-04-05T05:25:37;102117.16;;;4.63;64.28
23016;BME280;11674;52.428;13.584;2023-04-05T05:30:45;102115.00;;;4.71;64.24
23016;BME280;11674;52.428;13.584;2023-04-05T05:35:52;102105.25;;;4.82;64.26
23016;BME280;11674;52.428;13.584;2023-04-05T05:40:58;102108.97;;;4.94;64.16
23016;BME280;11674;52.428;13.584;2023-04-05T05:46:06;102103.16;;;5.08;64.29
23016;BME280;11674;52.428;13.584;2023-04-05T05:51:13;102109.00;;;5.25;64.23
23016;BME280;11674;52.428;13.584;2023-04-05T05:56:20;102085.56;;;5.40;64.26
23016;BME280;11674;52.428;13.584;2023-04-05T06:01:27;102089.00;;;5.36;64.24
23016;BME280;11674;52.428;13.584;2023-04-05T06:06:33;102085.09;;;5.50;64.26
23016;BME280;11674;52.428;13.584;2023-04-05T06:11:41;102075.59;;;5.70;64.40
23016;BME280;11674;52.428;13.584;2023-04-05T06:16:47;102096.44;;;5.84;64.38
23016;BME280;11674;52.428;13.584;2023-04-05T06:21:55;102103.50;;;5.74;63.75
23016;BME280;11674;52.428;13.584;2023-04-05T06:27:02;102108.22;;;5.67;63.56
23016;BME280;11674;52.428;13.584;2023-04-05T06:32:08;102107.44;;;5.60;63.33
23016;BME280;11674;52.428;13.584;2023-04-05T06:37:16;102097.44;;;5.65;63.34
23016;BME280;11674;52.428;13.584;2023-04-05T06:42:23;102101.13;;;5.77;63.38
23016;BME280;11674;52.428;13.584;2023-04-05T06:47:37;102102.81;;;5.78;63.28
23016;BME280;11674;52.428;13.584;2023-04-05T06:52:44;102097.50;;;5.83;63.24
23016;BME280;11674;52.428;13.584;2023-04-05T06:57:51;102102.88;;;5.96;63.25
23016;BME280;11674;52.428;13.584;2023-04-05T07:02:58;102098.31;;;6.08;63.39
23016;BME280;11674;52.428;13.584;2023-04-05T07:08:05;102092.25;;;6.18;63.22
23016;BME280;11674;52.428;13.584;2023-04-05T07:13:12;102085.31;;;6.33;63.51
23016;BME280;11674;52.428;13.584;2023-04-05T07:18:19;102079.72;;;6.40;63.74
23016;BME280;11674;52.428;13.584;2023-04-05T07:23:26;102078.84;;;6.57;63.72
23016;BME280;11674;52.428;13.584;2023-04-05T07:28:33;102076.38;;;6.67;63.77
23016;BME280;11674;52.428;13.584;2023-04-05T07:33:40;102089.72;;;6.70;63.87
23016;BME280;11674;52.428;13.584;2023-04-05T07:38:47;102091.41;;;6.71;63.66
23016;BME280;11674;52.428;13.584;2023-04-05T07:43:54;102087.06;;;6.93;63.86
23016;BME280;11674;52.428;13.584;2023-04-05T07:49:01;102092.72;;;6.98;63.67
23016;BME280;11674;52.428;13.584;2023-04-05T07:54:08;102099.16;;;6.92;63.30
23016;BME280;11674;52.428;13.584;2023-04-05T07:59:15;102094.66;;;6.80;63.41
23016;BME280;11674;52.428;13.584;2023-04-05T08:04:22;102096.19;;;6.76;62.92
23016;BME280;11674;52.428;13.584;2023-04-05T08:09:29;102086.16;;;6.81;62.80
23016;BME280;11674;52.428;13.584;2023-04-05T08:14:36;102083.59;;;6.98;62.93
23016;BME280;11674;52.428;13.584;2023-04-05T08:19:43;102086.28;;;7.16;63.09
23016;BME280;11674;52.428;13.584;2023-04-05T08:24:50;102091.28;;;7.37;63.11
23016;BME280;11674;52.428;13.584;2023-04-05T08:29:57;102081.31;;;7.47;63.05
23016;BME280;11674;52.428;13.584;2023-04-05T08:35:04;102083.50;;;7.68;63.07
23016;BME280;11674;52.428;13.584;2023-04-05T08:40:11;102080.88;;;7.85;62.80
23016;BME280;11674;52.428;13.584;2023-04-05T08:45:18;102084.00;;;8.00;63.02
23016;BME280;11674;52.428;13.584;2023-04-05T08:50:26;102079.66;;;8.15;62.59
23016;BME280;11674;52.428;13.584;2023-04-05T08:55:33;102077.13;;;8.14;62.78
23016;BME280;11674;52.428;13.584;2023-04-05T09:00:40;102079.69;;;8.27;62.95
23016;BME280;11674;52.428;13.584;2023-04-05T09:05:52;102091.44;;;8.34;62.95
23016;BME280;11674;52.428;13.584;2023-04-05T09:10:59;102089.47;;;8.46;63.14
23016;BME280;11674;52.428;13.584;2023-04-05T09:16:06;102085.25;;;8.55;62.94
23016;BME280;11674;52.428;13.584;2023-04-05T09:21:13;102080.41;;;8.73;62.89
23016;BME280;11674;52.428;13.584;2023-04-05T09:26:21;102078.19;;;8.87;62.99
23016;BME280;11674;52.428;13.584;2023-04-05T09:31:34;102074.19;;;9.11;63.08
23016;BME280;11674;52.428;13.584;2023-04-05T09:36:44;102071.81;;;9.31;62.87
23016;BME280;11674;52.428;13.584;2023-04-05T09:47:15;102076.34;;;9.20;62.85
23016;BME280;11674;52.428;13.584;2023-04-05T09:52:30;102064.16;;;9.38;62.92
23016;BME280;11674;52.428;13.584;2023-04-05T09:57:38;102059.06;;;9.63;62.19
23016;BME280;11674;52.428;13.584;2023-04-05T10:02:45;102058.88;;;9.53;62.34
23016;BME280;11674;52.428;13.584;2023-04-05T10:07:52;102054.38;;;9.63;61.92
23016;BME280;11674;52.428;13.584;2023-04-05T10:13:01;102052.59;;;9.74;61.86
23016;BME280;11674;52.428;13.584;2023-04-05T10:18:17;102058.28;;;9.67;61.82
23016;BME280;11674;52.428;13.584;2023-04-05T10:23:30;102052.63;;;10.12;62.05
23016;BME280;11674;52.428;13.584;2023-04-05T10:28:42;102047.84;;;10.45;61.13
23016;BME280;11674;52.428;13.584;2023-04-05T10:34:07;102047.34;;;10.75;61.04
23016;BME280;11674;52.428;13.584;2023-04-05T10:44:45;102041.56;;;10.76;61.31
23016;BME280;11674;52.428;13.584;2023-04-05T10:49:55;102041.25;;;10.73;60.97
23016;BME280;11674;52.428;13.584;2023-04-05T10:55:02;102031.75;;;10.69;61.02
23016;BME280;11674;52.428;13.584;2023-04-05T11:00:11;102026.94;;;10.86;60.69
23016;BME280;11674;52.428;13.584;2023-04-05T11:05:35;102032.38;;;10.76;59.67
23016;BME280;11674;52.428;13.584;2023-04-05T11:10:51;102035.31;;;10.43;58.95
23016;BME280;11674;52.428;13.584;2023-04-05T11:16:07;102024.91;;;10.12;59.16
23016;BME280;11674;52.428;13.584;2023-04-05T11:21:23;102030.28;;;10.02;58.92
23016;BME280;11674;52.428;13.584;2023-04-05T11:26:54;102027.31;;;9.87;58.08
23016;BME280;11674;52.428;13.584;2023-04-05T11:32:10;102028.91;;;9.83;58.54
23016;BME280;11674;52.428;13.584;2023-04-05T11:37:21;102026.59;;;9.58;57.86
23016;BME280;11674;52.428;13.584;2023-04-05T11:42:28;102022.63;;;9.54;58.32
23016;BME280;11674;52.428;13.584;2023-04-05T11:47:35;102027.66;;;9.74;57.85
23016;BME280;11674;52.428;13.584;2023-04-05T11:52:43;102035.38;;;9.55;57.88
23016;BME280;11674;52.428;13.584;2023-04-05T11:57:51;102016.50;;;9.69;58.24
23016;BME280;11674;52.428;13.584;2023-04-05T12:03:05;102016.41;;;10.02;57.91
23016;BME280;11674;52.428;13.584;2023-04-05T12:08:12;102015.16;;;10.09;57.62
23016;BME280;11674;52.428;13.584;2023-04-05T12:13:29;102007.19;;;10.34;56.84
23016;BME280;11674;52.428;13.584;2023-04-05T12:18:37;102008.41;;;10.22;57.40
23016;BME280;11674;52.428;13.584;2023-04-05T12:23:44;102007.56;;;10.43;57.31
23016;BME280;11674;52.428;13.584;2023-04-05T12:28:59;102000.78;;;10.34;57.08
23016;BME280;11674;52.428;13.584;2023-04-05T12:34:10;101986.72;;;9.81;56.75
23016;BME280;11674;52.428;13.584;2023-04-05T12:39:17;102004.50;;;9.47;56.87
23016;BME280;11674;52.428;13.584;2023-04-05T12:44:28;101992.09;;;9.33;57.11
23016;BME280;11674;52.428;13.584;2023-04-05T12:49:38;101990.50;;;9.37;56.62
23016;BME280;11674;52.428;13.584;2023-04-05T12:54:52;101993.09;;;9.43;56.22
23016;BME280;11674;52.428;13.584;2023-04-05T13:00:00;101990.75;;;9.52;56.19
23016;BME280;11674;52.428;13.584;2023-04-05T13:05:07;101981.75;;;9.61;55.93
23016;BME280;11674;52.428;13.584;2023-04-05T13:10:14;101969.53;;;9.79;54.58
23016;BME280;11674;52.428;13.584;2023-04-05T13:15:21;101983.41;;;9.62;54.82
23016;BME280;11674;52.428;13.584;2023-04-05T13:20:28;101971.06;;;9.70;54.16
23016;BME280;11674;52.428;13.584;2023-04-05T13:25:36;101965.41;;;9.60;53.21
23016;BME280;11674;52.428;13.584;2023-04-05T13:30:43;101969.31;;;9.64;54.01
23016;BME280;11674;52.428;13.584;2023-04-05T13:35:50;101956.91;;;9.88;54.52
23016;BME280;11674;52.428;13.584;2023-04-05T13:40:58;101961.59;;;10.04;54.36
23016;BME280;11674;52.428;13.584;2023-04-05T13:46:05;101951.34;;;10.26;54.20
23016;BME280;11674;52.428;13.584;2023-04-05T13:51:12;101949.06;;;10.44;54.69
23016;BME280;11674;52.428;13.584;2023-04-05T13:56:19;101941.97;;;10.32;54.30
23016;BME280;11674;52.428;13.584;2023-04-05T14:01:26;101939.03;;;10.17;54.52
23016;BME280;11674;52.428;13.584;2023-04-05T14:06:33;101932.19;;;10.03;54.07
23016;BME280;11674;52.428;13.584;2023-04-05T14:11:40;101928.59;;;9.86;54.71
23016;BME280;11674;52.428;13.584;2023-04-05T14:16:47;101924.09;;;9.80;54.45
23016;BME280;11674;52.428;13.584;2023-04-05T14:21:54;101913.22;;;9.95;54.56
23016;BME280;11674;52.428;13.584;2023-04-05T14:27:01;101905.72;;;10.65;54.23
23016;BME280;11674;52.428;13.584;2023-04-05T14:32:15;101908.44;;;11.23;53.55
23016;BME280;11674;52.428;13.584;2023-04-05T14:37:22;101907.56;;;11.17;53.67
23016;BME280;11674;52.428;13.584;2023-04-05T14:42:29;101899.84;;;11.24;53.63
23016;BME280;11674;52.428;13.584;2023-04-05T14:47:36;101887.88;;;11.60;53.90
23016;BME280;11674;52.428;13.584;2023-04-05T14:52:43;101880.59;;;12.06;53.74
23016;BME280;11674;52.428;13.584;2023-04-05T14:57:50;101874.44;;;12.04;53.50
23016;BME280;11674;52.428;13.584;2023-04-05T15:02:57;101883.50;;;11.74;52.83
23016;BME280;11674;52.428;13.584;2023-04-05T15:08:04;101877.44;;;11.82;53.37
23016;BME280;11674;52.428;13.584;2023-04-05T15:13:11;101877.81;;;12.06;53.36
23016;BME280;11674;52.428;13.584;2023-04-05T15:18:18;101883.53;;;11.84;53.48
23016;BME280;11674;52.428;13.584;2023-04-05T15:23:25;101881.94;;;11.47;53.98
23016;BME280;11674;52.428;13.584;2023-04-05T15:28:32;101875.91;;;11.18;54.08
23016;BME280;11674;52.428;13.584;2023-04-05T15:33:39;101879.19;;;11.10;54.41
23016;BME280;11674;52.428;13.584;2023-04-05T15:38:46;101871.56;;;10.96;54.79
23016;BME280;11674;52.428;13.584;2023-04-05T15:43:53;101868.50;;;10.92;54.73
23016;BME280;11674;52.428;13.584;2023-04-05T15:49:00;101863.97;;;10.81;54.90
23016;BME280;11674;52.428;13.584;2023-04-05T15:54:07;101867.53;;;10.77;55.24
23016;BME280;11674;52.428;13.584;2023-04-05T15:59:14;101862.72;;;10.67;55.17
23016;BME280;11674;52.428;13.584;2023-04-05T16:04:21;101868.63;;;10.44;54.79
23016;BME280;11674;52.428;13.584;2023-04-05T16:09:28;101868.34;;;10.19;54.47
23016;BME280;11674;52.428;13.584;2023-04-05T16:14:35;101869.19;;;10.20;54.66
23016;BME280;11674;52.428;13.584;2023-04-05T16:19:42;101870.38;;;10.24;54.94
23016;BME280;11674;52.428;13.584;2023-04-05T16:24:49;101863.06;;;10.18;55.34
23016;BME280;11674;52.428;13.584;2023-04-05T16:29:56;101864.75;;;10.19;55.40
23016;BME280;11674;52.428;13.584;2023-04-05T16:35:03;101874.94;;;10.13;55.28
23016;BME280;11674;52.428;13.584;2023-04-05T16:40:10;101859.84;;;10.26;55.79
23016;BME280;11674;52.428;13.584;2023-04-05T16:45:17;101862.13;;;10.60;55.68
23016;BME280;11674;52.428;13.584;2023-04-05T16:50:24;101864.09;;;10.65;55.76
23016;BME280;11674;52.428;13.584;2023-04-05T16:55:31;101865.28;;;10.74;55.91
23016;BME280;11674;52.428;13.584;2023-04-05T17:00:38;101866.09;;;10.69;56.02
23016;BME280;11674;52.428;13.584;2023-04-05T17:05:45;101868.19;;;10.57;56.23
23016;BME280;11674;52.428;13.584;2023-04-05T17:10:52;101866.00;;;10.33;56.33
23016;BME280;11674;52.428;13.584;2023-04-05T17:15:59;101867.31;;;10.25;56.42
23016;BME280;11674;52.428;13.584;2023-04-05T17:21:06;101873.03;;;10.14;56.72
23016;BME280;11674;52.428;13.584;2023-04-05T17:26:13;101865.66;;;10.03;56.70
23016;BME280;11674;52.428;13.584;2023-04-05T17:31:20;101865.91;;;9.80;56.73
23016;BME280;11674;52.428;13.584;2023-04-05T17:36:27;101868.16;;;9.61;56.98
23016;BME280;11674;52.428;13.584;2023-04-05T17:41:34;101874.34;;;9.47;57.04
23016;BME280;11674;52.428;13.584;2023-04-05T17:46:41;101881.06;;;9.34;57.13
23016;BME280;11674;52.428;13.584;2023-04-05T17:51:48;101865.94;;;9.20;57.28
23016;BME280;11674;52.428;13.584;2023-04-05T17:56:55;101884.22;;;9.05;57.45
23016;BME280;11674;52.428;13.584;2023-04-05T18:02:02;101878.03;;;8.98;57.34
23016;BME280;11674;52.428;13.584;2023-04-05T18:07:09;101879.88;;;8.92;57.61
23016;BME280;11674;52.428;13.584;2023-04-05T18:12:16;101885.00;;;8.84;57.68
23016;BME280;11674;52.428;13.584;2023-04-05T18:17:23;101890.44;;;8.79;57.72
23016;BME280;11674;52.428;13.584;2023-04-05T18:22:30;101894.53;;;8.76;57.76
23016;BME280;11674;52.428;13.584;2023-04-05T18:27:37;101893.38;;;8.72;57.92
23016;BME280;11674;52.428;13.584;2023-04-05T18:32:45;101903.03;;;8.70;58.03
23016;BME280;11674;52.428;13.584;2023-04-05T18:37:52;101899.41;;;8.69;58.18
23016;BME280;11674;52.428;13.584;2023-04-05T18:42:59;101907.38;;;8.66;58.15
23016;BME280;11674;52.428;13.584;2023-04-05T18:48:06;101903.50;;;8.67;58.17
23016;BME280;11674;52.428;13.584;2023-04-05T18:53:13;101915.34;;;8.62;58.34
23016;BME280;11674;52.428;13.584;2023-04-05T18:58:20;101919.66;;;8.58;58.46
23016;BME280;11674;52.428;13.584;2023-04-05T19:03:27;101914.38;;;8.57;58.53
23016;BME280;11674;52.428;13.584;2023-04-05T19:08:34;101920.44;;;8.54;58.50
23016;BME280;11674;52.428;13.584;2023-04-05T19:13:41;101928.13;;;8.52;58.53
23016;BME280;11674;52.428;13.584;2023-04-05T19:18:48;101919.72;;;8.47;58.51
23016;BME280;11674;52.428;13.584;2023-04-05T19:23:55;101926.09;;;8.47;58.62
23016;BME280;11674;52.428;13.584;2023-04-05T19:29:02;101928.03;;;8.47;58.83
23016;BME280;11674;52.428;13.584;2023-04-05T19:34:09;101927.69;;;8.43;58.87
23016;BME280;11674;52.428;13.584;2023-04-05T19:39:16;101928.19;;;8.40;58.78
23016;BME280;11674;52.428;13.584;2023-04-05T19:44:45;101930.59;;;8.37;58.75
23016;BME280;11674;52.428;13.584;2023-04-05T19:49:53;101930.00;;;8.35;58.85
23016;BME280;11674;52.428;13.584;2023-04-05T19:55:03;101925.81;;;8.32;59.00
23016;BME280;11674;52.428;13.584;2023-04-05T20:10:53;101928.31;;;8.06;59.11
23016;BME280;11674;52.428;13.584;2023-04-05T20:16:00;101920.03;;;7.94;59.21
23016;BME280;11674;52.428;13.584;2023-04-05T20:21:07;101920.16;;;7.88;59.31
23016;BME280;11674;52.428;13.584;2023-04-05T20:26:15;101923.31;;;7.80;59.30
23016;BME280;11674;52.428;13.584;2023-04-05T20:31:27;101910.13;;;7.70;59.36
23016;BME280;11674;52.428;13.584;2023-04-05T20:36:43;101912.41;;;7.62;59.47
23016;BME280;11674;52.428;13.584;2023-04-05T20:41:52;101911.38;;;7.51;59.54
23016;BME280;11674;52.428;13.584;2023-04-05T20:46:59;101905.72;;;7.46;59.63
23016;BME280;11674;52.428;13.584;2023-04-05T20:52:06;101917.50;;;7.42;59.68
23016;BME280;11674;52.428;13.584;2023-04-05T20:57:13;101911.38;;;7.40;59.87
23016;BME280;11674;52.428;13.584;2023-04-05T21:02:20;101902.63;;;7.31;59.97
23016;BME280;11674;52.428;13.584;2023-04-05T21:07:27;101908.63;;;7.28;60.09
23016;BME280;11674;52.428;13.584;2023-04-05T21:12:34;101903.47;;;7.32;60.23
23016;BME280;11674;52.428;13.584;2023-04-05T21:17:41;101910.19;;;7.36;60.13
23016;BME280;11674;52.428;13.584;2023-04-05T21:22:48;101902.97;;;7.35;60.20
23016;BME280;11674;52.428;13.584;2023-04-05T21:27:55;101907.06;;;7.32;60.19
23016;BME280;11674;52.428;13.584;2023-04-05T21:33:02;101900.09;;;7.30;60.38
23016;BME280;11674;52.428;13.584;2023-04-05T21:38:09;101906.13;;;7.27;60.32
23016;BME280;11674;52.428;13.584;2023-04-05T21:43:16;101899.16;;;7.24;60.32
23016;BME280;11674;52.428;13.584;2023-04-05T21:48:23;101897.38;;;7.18;60.45
23016;BME280;11674;52.428;13.584;2023-04-05T21:53:30;101897.47;;;7.12;60.58
23016;BME280;11674;52.428;13.584;2023-04-05T21:58:37;101897.00;;;7.03;60.68
23016;BME280;11674;52.428;13.584;2023-04-05T22:03:46;101895.78;;;6.99;60.60
23016;BME280;11674;52.428;13.584;2023-04-05T22:08:53;101898.78;;;6.98;60.80
23016;BME280;11674;52.428;13.584;2023-04-05T22:14:01;101889.91;;;6.96;60.89
23016;BME280;11674;52.428;13.584;2023-04-05T22:19:08;101887.63;;;6.93;60.92
23016;BME280;11674;52.428;13.584;2023-04-05T22:24:15;101886.44;;;6.89;60.95
23016;BME280;11674;52.428;13.584;2023-04-05T22:29:25;101891.97;;;6.89;61.04
23016;BME280;11674;52.428;13.584;2023-04-05T22:34:32;101892.06;;;6.82;61.18
23016;BME280;11674;52.428;13.584;2023-04-05T22:39:39;101896.38;;;6.78;61.33
23016;BME280;11674;52.428;13.584;2023-04-05T22:44:46;101891.56;;;6.74;61.35
23016;BME280;11674;52.428;13.584;2023-04-05T22:49:53;101890.13;;;6.71;61.36
23016;BME280;11674;52.428;13.584;2023-04-05T22:55:00;101896.97;;;6.69;61.46
23016;BME280;11674;52.428;13.584;2023-04-05T23:00:07;101902.47;;;6.69;61.57
23016;BME280;11674;52.428;13.584;2023-04-05T23:05:14;101893.22;;;6.63;61.51
23016;BME280;11674;52.428;13.584;2023-04-05T23:10:21;101897.56;;;6.59;61.56
23016;BME280;11674;52.428;13.584;2023-04-05T23:15:28;101892.84;;;6.60;61.78
23016;BME280;11674;52.428;13.584;2023-04-05T23:20:35;101892.03;;;6.59;61.57
23016;BME280;11674;52.428;13.584;2023-04-05T23:25:42;101884.81;;;6.58;61.87
23016;BME280;11674;52.428;13.584;2023-04-05T23:30:49;101893.34;;;6.57;61.76
23016;BME280;11674;52.428;13.584;2023-04-05T23:35:56;101894.88;;;6.53;61.86
23016;BME280;11674;52.428;13.584;2023-04-05T23:41:03;101889.25;;;6.48;62.02
23016;BME280;11674;52.428;13.584;2023-04-05T23:46:10;101886.94;;;6.45;62.17
23016;BME280;11674;52.428;13.584;2023-04-05T23:51:17;101882.16;;;6.40;62.23
23016;BME280;11674;52.428;13.584;2023-04-05T23:56:24;101882.38;;;6.39;62.10
